Friday, April 27, 2018, 6:39 AM GMT
Back to Local

CYYY, Mont Joli, Que.

Location: , , Canada Lat: 48.6
Local Time: 6:39 AM GMT ( 6:39 GMT) Lon: -68.217
Time Zone: GMT Elev: 157 ft

Show me the last for .
Show Decoded

2018-04-27 04:00 METAR CYYY 270400Z 22009KT 5SM -RA BR BKN004 OVC029 05/05 A2948 RMK SF6SC2
                 SLP986 =
2018-04-27 01:33 METAR CYYY 270133Z 25008KT 5SM -RA BR OVC006 04/04 A2945 RMK FU8 SLP977 =
2018-04-26 23:44 METAR CYYY 262344Z 24007KT 2SM -RA BR OVC003 04/04 A2941 RMK SF8 SLP964 =
2018-04-26 21:21 METAR CYYY 262121Z 00000KT 2SM -RA BR BKN002 OVC010 06/05 A2942 RMK SF5SC3
                 SLP964 =
2018-04-26 21:00 METAR CYYY 262100Z 07004KT 2 1/2SM -RA BR FEW002 OVC011 05/05 A2942 RMK SF2SC6
                 SLP964 =
2018-04-26 20:00 METAR CYYY 262000Z 07006KT 2 1/2SM -RA BR FEW002 OVC010 06/06 A2944 RMK SF2SC6
                 SLP972 =
2018-04-26 19:00 METAR CYYY 261900Z 06011KT 2SM -RA BR FEW002 OVC010 07/06 A2947 RMK SF2SC6
                 PRESFR SLP981 =
2018-04-26 18:26 METAR CYYY 261826Z 06007KT 2SM -RA BR FEW002 OVC010 08/08 A2949 RMK SF2SC6
                 SLP988 =
2018-04-26 18:00 METAR CYYY 261800Z 05007KT 4SM -RA BR SCT006 OVC030 10/10 A2950 RMK SF3SC5
                 SLP993 DENSITY ALT 200FT =
2018-04-26 17:00 METAR CYYY 261700Z 06007KT 4SM -RA BR FEW002 OVC038 09/09 A2953 RMK SF1SC7
                 SLP003 =
2018-04-26 16:00 METAR CYYY 261600Z 06005KT 050V130 5SM -RA BR FEW002 OVC040 10/09 A2956 RMK
                 SF1SC7 SLP012 =
2018-04-26 15:00 METAR CYYY 261500Z 12008KT 4SM -RA BR FEW002 OVC035 09/09 A2958 RMK SF2SC6
                 SLP021 =
2018-04-26 14:25 METAR CYYY 261425Z 10010KT 3SM FC BR SCT002 OVC020 06/06 A2960 RMK SF3SC5 SLP026
                 =
2018-04-26 14:00 METAR CYYY 261400Z 08012KT 3SM -RA BR BKN002 OVC020 05/05 A2961 RMK SF5SC3
                 SLP030 =
2018-04-26 13:00 METAR CYYY 261300Z 07011KT 3SM -RA BR BKN002 OVC017 05/05 A2964 RMK SF5SC3
                 SLP038 =
2018-04-26 12:37 METAR CYYY 261237Z 06011KT 2 1/2SM -RA BR BKN002 OVC017 05/05 A2965 RMK SF6SC2
                 SLP043 =
2018-04-26 12:22 METAR CYYY 261222Z 07011KT 3SM -RA BR FEW001 BKN017 OVC050 05/05 A2965 RMK
                 SF2SC3SC3 SLP045 =
2018-04-26 12:00 METAR CYYY 261200Z 08011KT 3SM -RA BR BKN017 OVC050 05/05 A2966 RMK SC6SC2
                 SLP047 =
2018-04-26 11:00 METAR CYYY 261100Z 08010KT 5SM -RA BR FEW001 BKN017 OVC060 06/05 A2968 RMK
                 SF1SC4SC3 SLP053 =
2018-04-26 10:00 METAR CYYY 261000Z 05009KT 8SM -RA SCT038 OVC062 08/07 A2970 RMK SC3SC5 SLP059 =
2018-04-26 09:00 METAR CYYY 260900Z 03007KT 10SM OVC076 07/07 A2972 RMK AC8 SLP067 =
2018-04-26 08:00 METAR CYYY 260800Z 12007G16KT 10SM -RA OVC071 10/08 A2976 RMK AC8 SLP081 =
2018-04-26 07:00 METAR CYYY 260700Z 14015G21KT 10SM -RA SCT051 OVC071 10/08 A2980 RMK SC4AC4
                 SLP092 =

Support USWX by starting your Amazon purchase here.